createdAt,value
2017-09-18T00:00:18.442Z,51.80
2017-09-18T00:02:45.943Z,51.70
2017-09-18T00:05:13.456Z,51.80
2017-09-18T00:07:41.203Z,51.90
2017-09-18T00:10:08.747Z,51.90
2017-09-18T00:12:37.132Z,51.80
2017-09-18T00:15:04.791Z,51.80
2017-09-18T00:17:32.288Z,51.80
2017-09-18T00:19:59.903Z,51.80
2017-09-18T00:22:27.578Z,51.80
2017-09-18T00:24:55.094Z,51.80
2017-09-18T00:27:23.513Z,51.90
2017-09-18T00:29:51.150Z,51.90
2017-09-18T00:32:18.643Z,51.80
2017-09-18T00:34:46.173Z,51.80
2017-09-18T00:37:13.714Z,51.80
2017-09-18T00:39:41.274Z,51.80
2017-09-18T00:42:08.836Z,51.80
2017-09-18T00:44:36.500Z,51.80
2017-09-18T00:47:04.000Z,51.80
2017-09-18T00:49:31.599Z,51.80
2017-09-18T00:51:59.095Z,51.90
2017-09-18T00:54:26.595Z,51.80
2017-09-18T00:56:54.988Z,51.90
2017-09-18T00:59:22.647Z,51.90
2017-09-18T01:01:50.303Z,51.80
2017-09-18T01:04:17.808Z,51.80
2017-09-18T01:06:45.415Z,51.90
2017-09-18T01:09:13.075Z,51.90
2017-09-18T01:11:40.575Z,51.90
2017-09-18T01:14:08.071Z,52.00
2017-09-18T01:16:36.340Z,52.00
2017-09-18T01:19:04.604Z,52.00
2017-09-18T01:21:33.011Z,52.40
2017-09-18T01:24:00.507Z,51.90
2017-09-18T01:26:28.115Z,51.90
2017-09-18T01:28:55.775Z,51.90
2017-09-18T01:31:23.436Z,51.90
2017-09-18T01:33:50.930Z,51.90
2017-09-18T01:36:18.547Z,52.40
2017-09-18T01:38:46.049Z,51.80
2017-09-18T01:41:13.658Z,51.90
2017-09-18T01:43:41.154Z,51.90
2017-09-18T01:46:08.766Z,51.90
2017-09-18T01:48:36.257Z,52.00
2017-09-18T01:51:03.882Z,51.90
2017-09-18T01:53:31.379Z,51.90
2017-09-18T01:55:58.905Z,52.00
2017-09-18T01:58:26.406Z,52.00
2017-09-18T02:00:54.107Z,51.90
2017-09-18T02:03:21.728Z,51.90
2017-09-18T02:05:49.424Z,52.00
2017-09-18T02:08:17.087Z,52.00
2017-09-18T02:10:44.707Z,51.90
2017-09-18T02:13:12.199Z,51.90
2017-09-18T02:15:39.855Z,51.90
2017-09-18T02:18:07.530Z,52.00
2017-09-18T02:20:35.043Z,52.00
2017-09-18T02:23:03.323Z,52.10
2017-09-18T02:25:31.606Z,52.00
2017-09-18T02:27:59.987Z,52.00
2017-09-18T02:30:27.646Z,52.00
2017-09-18T02:32:55.154Z,52.00
2017-09-18T02:35:22.677Z,52.00
2017-09-18T02:37:50.215Z,52.00
2017-09-18T02:40:17.797Z,51.90
2017-09-18T02:42:45.292Z,52.00
2017-09-18T02:45:12.986Z,52.00
2017-09-18T02:47:40.592Z,52.00
2017-09-18T02:50:08.324Z,52.00
2017-09-18T02:52:35.823Z,52.00
2017-09-18T02:58:26.435Z,51.80
2017-09-18T03:00:54.715Z,51.90
2017-09-18T03:03:22.207Z,51.90
2017-09-18T03:05:49.751Z,51.40
2017-09-18T03:08:17.411Z,52.00
2017-09-18T03:10:44.923Z,51.90
2017-09-18T03:13:12.528Z,52.00
2017-09-18T03:15:40.178Z,51.90
2017-09-18T03:18:07.683Z,51.90
2017-09-18T03:20:35.199Z,52.00
2017-09-18T03:23:02.750Z,51.90
2017-09-18T03:25:30.411Z,51.90
2017-09-18T03:27:57.915Z,52.50
2017-09-18T03:30:25.430Z,51.90
2017-09-18T03:32:52.975Z,52.00
2017-09-18T03:35:20.639Z,52.00
2017-09-18T03:37:48.143Z,52.00
2017-09-18T03:40:15.639Z,51.90
2017-09-18T03:42:43.163Z,51.90
2017-09-18T03:45:11.427Z,51.60
2017-09-18T03:47:38.940Z,52.10
2017-09-18T03:50:06.435Z,52.00
2017-09-18T03:52:33.951Z,52.00
2017-09-18T03:55:01.451Z,52.00
2017-09-18T03:57:29.743Z,52.00
2017-09-18T03:59:58.003Z,52.10
2017-09-18T04:02:26.288Z,51.60
2017-09-18T04:04:54.552Z,52.00
2017-09-18T04:07:22.072Z,52.00
2017-09-18T04:09:49.618Z,52.00
2017-09-18T04:12:17.134Z,52.00
2017-09-18T04:14:45.545Z,51.90
2017-09-18T04:17:13.072Z,52.00
2017-09-18T04:19:41.332Z,52.00
2017-09-18T04:22:09.611Z,52.00
2017-09-18T04:24:37.880Z,52.00
2017-09-18T04:27:06.159Z,51.90
2017-09-18T04:29:34.543Z,52.00
2017-09-18T04:32:02.204Z,51.90
2017-09-18T04:34:29.712Z,52.00
2017-09-18T04:36:57.227Z,51.90
2017-09-18T04:39:24.724Z,52.00
2017-09-18T04:41:52.252Z,52.10
2017-09-18T04:44:19.743Z,52.00
2017-09-18T04:46:47.269Z,52.00
2017-09-18T04:49:14.775Z,52.00
2017-09-18T04:51:42.304Z,52.00
2017-09-18T04:54:09.799Z,51.90
2017-09-18T04:56:37.375Z,51.90
2017-09-18T04:59:04.871Z,51.90
2017-09-18T05:01:32.379Z,51.90
2017-09-18T05:03:59.947Z,52.00
2017-09-18T05:06:27.444Z,52.10
2017-09-18T05:08:55.870Z,52.50
2017-09-18T05:11:23.371Z,52.10
2017-09-18T05:13:50.887Z,51.90
2017-09-18T05:16:18.379Z,51.90
2017-09-18T05:18:45.914Z,51.90
2017-09-18T05:21:13.411Z,51.90
2017-09-18T05:23:42.029Z,51.90
2017-09-18T05:26:09.528Z,51.90
2017-09-18T05:28:37.787Z,52.10
2017-09-18T05:31:05.284Z,52.00
2017-09-18T05:33:32.795Z,52.00
2017-09-18T05:36:00.291Z,52.00
2017-09-18T05:38:27.973Z,52.10
2017-09-18T05:40:55.488Z,52.00
2017-09-18T05:43:23.892Z,52.00
2017-09-18T05:45:51.412Z,52.00
2017-09-18T05:48:19.823Z,52.10
2017-09-18T05:50:47.334Z,52.00
2017-09-18T05:53:14.943Z,52.00
2017-09-18T05:55:43.374Z,52.00
2017-09-18T05:58:10.880Z,52.10
2017-09-18T06:00:38.384Z,52.00
2017-09-18T06:03:05.906Z,52.00
2017-09-18T06:05:33.463Z,51.90
2017-09-18T06:08:00.972Z,51.90
2017-09-18T06:10:29.243Z,51.90
2017-09-18T06:12:57.650Z,51.90
2017-09-18T06:15:25.312Z,51.80
2017-09-18T06:17:52.847Z,51.90
2017-09-18T06:20:20.364Z,51.90
2017-09-18T06:22:48.071Z,51.90
2017-09-18T06:25:15.586Z,51.90
2017-09-18T06:27:43.115Z,51.90
2017-09-18T06:30:10.646Z,51.90
2017-09-18T06:32:38.148Z,51.90
2017-09-18T06:35:05.656Z,51.90
2017-09-18T06:37:33.147Z,51.90
2017-09-18T06:40:00.643Z,51.90
2017-09-18T06:42:28.311Z,51.80
2017-09-18T06:44:55.851Z,51.90
2017-09-18T06:47:24.124Z,51.90
2017-09-18T06:49:52.412Z,51.90
2017-09-18T06:52:19.971Z,51.80
2017-09-18T06:54:47.640Z,51.90
2017-09-18T06:57:15.395Z,51.90
2017-09-18T06:59:42.931Z,51.90
2017-09-18T07:02:11.204Z,51.90
2017-09-18T07:04:39.490Z,52.00
2017-09-18T07:07:07.011Z,52.00
2017-09-18T07:09:34.521Z,52.00
2017-09-18T07:12:02.015Z,52.00
2017-09-18T07:14:29.511Z,52.00
2017-09-18T07:16:57.091Z,52.60
2017-09-18T07:19:24.591Z,52.00
2017-09-18T07:21:52.875Z,52.00
2017-09-18T07:24:21.154Z,52.00
2017-09-18T07:26:49.431Z,52.00
2017-09-18T07:29:17.694Z,52.00
2017-09-18T07:31:45.975Z,52.00
2017-09-18T07:34:14.234Z,52.10
2017-09-18T07:36:41.744Z,52.00
2017-09-18T07:39:09.295Z,52.00
2017-09-18T07:41:36.811Z,51.90
2017-09-18T07:44:05.075Z,52.10
2017-09-18T07:46:33.335Z,52.10
2017-09-18T07:49:01.687Z,52.00
2017-09-18T07:51:29.188Z,52.00
2017-09-18T07:53:56.707Z,52.10
2017-09-18T07:56:24.208Z,52.10
2017-09-18T07:58:51.726Z,52.00
2017-09-18T08:01:20.864Z,52.10
2017-09-18T08:03:48.507Z,52.10
2017-09-18T08:06:16.180Z,52.00
2017-09-18T08:08:43.835Z,52.00
2017-09-18T08:11:11.506Z,51.90
2017-09-18T08:13:39.007Z,51.90
2017-09-18T08:16:06.619Z,52.00
2017-09-18T08:18:34.120Z,52.50
2017-09-18T08:21:01.723Z,52.00
2017-09-18T08:23:29.394Z,51.90
2017-09-18T08:25:57.035Z,51.90
2017-09-18T08:28:24.526Z,52.00
2017-09-18T08:30:52.043Z,51.90
2017-09-18T08:33:19.618Z,51.90
2017-09-18T08:35:47.227Z,51.90
2017-09-18T08:38:14.731Z,51.90
2017-09-18T08:40:42.370Z,51.90
2017-09-18T08:43:09.859Z,52.00
2017-09-18T08:45:37.350Z,52.00
2017-09-18T08:48:05.616Z,52.60
2017-09-18T08:50:33.115Z,52.00
2017-09-18T08:53:00.640Z,51.90
2017-09-18T08:55:28.335Z,51.90
2017-09-18T08:57:55.987Z,51.90
2017-09-18T09:00:23.482Z,52.00
2017-09-18T09:02:51.000Z,52.00
2017-09-18T09:05:18.567Z,52.00
2017-09-18T09:07:46.082Z,51.90
2017-09-18T09:10:14.371Z,51.90
2017-09-18T09:12:41.895Z,51.90
2017-09-18T09:15:09.395Z,52.00
2017-09-18T09:17:37.049Z,52.10
2017-09-18T09:20:04.543Z,52.00
2017-09-18T09:22:32.073Z,52.10
2017-09-18T09:24:59.566Z,52.10
2017-09-18T09:27:28.567Z,52.10
2017-09-18T09:29:56.856Z,51.90
2017-09-18T09:32:25.118Z,52.00
2017-09-18T09:34:53.404Z,52.00
2017-09-18T09:37:21.796Z,52.00
2017-09-18T09:39:49.320Z,51.90
2017-09-18T09:42:17.707Z,52.00
2017-09-18T09:44:45.390Z,52.00
2017-09-18T09:47:13.043Z,52.00
2017-09-18T09:49:40.550Z,52.00
2017-09-18T09:52:08.046Z,52.00
2017-09-18T09:54:35.611Z,52.00
2017-09-18T09:57:03.286Z,52.00
2017-09-18T09:59:30.788Z,52.00
2017-09-18T10:01:58.291Z,52.00
2017-09-18T10:04:25.851Z,52.00
2017-09-18T10:06:53.352Z,52.00
2017-09-18T10:09:21.618Z,52.00
2017-09-18T10:11:49.219Z,51.90
2017-09-18T10:14:16.879Z,52.00
2017-09-18T10:16:44.540Z,52.00
2017-09-18T10:19:12.194Z,52.10
2017-09-18T10:21:39.860Z,52.60
2017-09-18T10:24:07.531Z,52.00
2017-09-18T10:26:35.031Z,52.10
2017-09-18T10:29:03.443Z,52.70
2017-09-18T10:31:31.099Z,52.00
2017-09-18T10:33:58.671Z,52.10
2017-09-18T10:36:26.231Z,52.10
2017-09-18T10:38:53.728Z,52.10
2017-09-18T10:41:21.223Z,52.10
2017-09-18T10:43:48.739Z,52.10
2017-09-18T10:46:17.884Z,52.10
2017-09-18T10:48:45.535Z,52.10
2017-09-18T10:51:13.191Z,52.70
2017-09-18T10:53:40.866Z,52.10
2017-09-18T10:56:08.532Z,52.10
2017-09-18T10:58:36.168Z,52.10
2017-09-18T11:01:03.823Z,52.00
2017-09-18T11:03:31.340Z,52.00
2017-09-18T11:05:59.615Z,52.00
2017-09-18T11:08:28.031Z,52.10
2017-09-18T11:10:55.707Z,52.10
2017-09-18T11:13:23.219Z,52.10
2017-09-18T11:15:51.503Z,52.10
2017-09-18T11:18:19.907Z,52.10
2017-09-18T11:20:47.441Z,52.00
2017-09-18T11:23:15.013Z,52.10
2017-09-18T11:25:42.515Z,52.10
2017-09-18T11:28:10.019Z,52.60
2017-09-18T11:30:37.571Z,52.10
2017-09-18T11:33:05.235Z,52.00
2017-09-18T11:35:32.900Z,52.10
2017-09-18T11:38:00.424Z,52.10
2017-09-18T11:40:28.691Z,52.20
2017-09-18T11:42:56.270Z,52.20
2017-09-18T11:45:23.767Z,52.20
2017-09-18T11:47:51.287Z,52.20
2017-09-18T11:50:19.049Z,52.20
2017-09-18T11:52:46.551Z,52.20
2017-09-18T11:55:14.044Z,52.20
2017-09-18T11:57:41.627Z,52.20
2017-09-18T12:00:09.119Z,52.20
2017-09-18T12:02:36.615Z,52.20
2017-09-18T12:05:04.107Z,52.20
2017-09-18T12:07:31.631Z,52.20
2017-09-18T12:09:59.315Z,52.20
2017-09-18T12:12:26.808Z,52.30
2017-09-18T12:14:54.323Z,52.20
2017-09-18T12:17:21.935Z,52.20
2017-09-18T12:19:50.331Z,52.20
2017-09-18T12:22:17.987Z,52.10
2017-09-18T12:24:45.511Z,52.30
2017-09-18T12:27:13.800Z,52.30
2017-09-18T12:29:42.195Z,52.30
2017-09-18T12:32:09.709Z,52.20
2017-09-18T12:34:37.311Z,52.30
2017-09-18T12:37:04.827Z,52.30
2017-09-18T12:39:32.430Z,52.40
2017-09-18T12:42:00.083Z,52.30
2017-09-18T12:44:27.687Z,52.40
2017-09-18T12:46:55.215Z,52.30
2017-09-18T12:49:22.771Z,52.20
2017-09-18T12:51:50.416Z,52.30
2017-09-18T12:54:18.000Z,52.30
2017-09-18T12:56:45.534Z,52.30
2017-09-18T12:59:13.031Z,52.30
2017-09-18T13:01:40.744Z,52.40
2017-09-18T13:04:08.263Z,52.40
2017-09-18T13:06:36.535Z,52.30
2017-09-18T13:09:04.804Z,52.40
2017-09-18T13:11:33.215Z,52.40
2017-09-18T13:14:00.738Z,52.40
2017-09-18T13:16:29.015Z,52.30
2017-09-18T13:18:57.635Z,52.80
2017-09-18T13:21:25.293Z,52.20
2017-09-18T13:23:52.819Z,52.30
2017-09-18T13:26:21.084Z,52.40
2017-09-18T13:28:49.375Z,52.40
2017-09-18T13:31:16.868Z,52.30
2017-09-18T13:33:44.407Z,52.30
2017-09-18T13:36:11.903Z,52.30
2017-09-18T13:38:39.415Z,52.40
2017-09-18T13:41:07.203Z,52.40
2017-09-18T13:43:34.835Z,52.40
2017-09-18T13:46:02.331Z,52.90
2017-09-18T13:48:29.854Z,52.40
2017-09-18T13:50:57.391Z,52.40
2017-09-18T13:53:24.903Z,52.40
2017-09-18T13:55:53.175Z,52.30
2017-09-18T13:58:20.696Z,52.30
2017-09-18T14:00:48.225Z,52.40
2017-09-18T14:03:15.756Z,52.30
2017-09-18T14:05:44.163Z,52.40
2017-09-18T14:08:11.828Z,52.40
2017-09-18T14:10:39.475Z,52.40
2017-09-18T14:13:06.967Z,52.50
2017-09-18T14:15:34.608Z,52.40
2017-09-18T14:18:02.109Z,52.40
2017-09-18T14:20:30.520Z,52.50
2017-09-18T14:22:58.124Z,52.40
2017-09-18T14:25:25.635Z,52.40
2017-09-18T14:27:53.136Z,52.30
2017-09-18T14:30:20.627Z,52.30
2017-09-18T14:32:48.895Z,52.30
2017-09-18T14:35:17.169Z,52.30
2017-09-18T14:37:45.563Z,52.40
2017-09-18T14:40:13.242Z,52.30
2017-09-18T14:42:40.739Z,52.30
2017-09-18T14:45:09.013Z,52.40
2017-09-18T14:47:37.285Z,53.00
2017-09-18T14:50:05.561Z,52.30
2017-09-18T14:52:33.989Z,52.30
2017-09-18T14:55:01.486Z,52.20
2017-09-18T14:57:29.002Z,52.40
2017-09-18T14:59:56.535Z,52.30
2017-09-18T15:02:24.051Z,52.90
2017-09-18T15:04:52.470Z,52.40
2017-09-18T15:07:19.966Z,52.30
2017-09-18T15:09:47.491Z,52.30
2017-09-18T15:12:15.055Z,52.30
2017-09-18T15:14:42.570Z,52.20
2017-09-18T15:17:10.839Z,52.30
2017-09-18T15:19:39.131Z,52.30
2017-09-18T15:22:06.794Z,52.30
2017-09-18T15:24:34.561Z,52.30
2017-09-18T15:27:02.067Z,52.30
2017-09-18T15:29:29.563Z,52.40
2017-09-18T15:31:57.123Z,52.40
2017-09-18T15:34:24.628Z,52.40
2017-09-18T15:36:52.147Z,52.40
2017-09-18T15:39:19.691Z,52.40
2017-09-18T15:41:47.220Z,52.40
2017-09-18T15:44:15.632Z,52.40
2017-09-18T15:46:43.239Z,52.40
2017-09-18T15:49:10.751Z,52.40
2017-09-18T15:51:38.280Z,52.40
2017-09-18T15:54:05.779Z,52.30
2017-09-18T15:56:33.281Z,52.50
2017-09-18T15:59:00.783Z,52.40
2017-09-18T16:01:28.419Z,52.50
2017-09-18T16:03:55.941Z,52.40
2017-09-18T16:06:24.212Z,52.40
2017-09-18T16:08:52.615Z,52.40
2017-09-18T16:11:20.115Z,52.40
2017-09-18T16:13:47.637Z,52.40
2017-09-18T16:16:15.179Z,52.30
2017-09-18T16:18:42.695Z,52.40
2017-09-18T16:21:10.192Z,52.30
2017-09-18T16:23:37.949Z,52.30
2017-09-18T16:26:05.447Z,52.40
2017-09-18T16:28:32.935Z,52.40
2017-09-18T16:31:01.211Z,52.50
2017-09-18T16:33:28.892Z,52.30
2017-09-18T16:35:56.696Z,52.30
2017-09-18T16:38:24.203Z,52.30
2017-09-18T16:40:51.699Z,52.30
2017-09-18T16:43:19.219Z,52.40
2017-09-18T16:45:46.875Z,52.30
2017-09-18T16:48:14.476Z,52.40
2017-09-18T16:50:42.005Z,52.40
2017-09-18T16:53:09.499Z,52.40
2017-09-18T16:55:37.024Z,52.40
2017-09-18T16:58:04.577Z,52.40
2017-09-18T17:00:32.187Z,52.40
2017-09-18T17:02:59.719Z,52.30
2017-09-18T17:05:27.328Z,52.30
2017-09-18T17:07:54.836Z,52.30
2017-09-18T17:10:22.443Z,52.40
2017-09-18T17:12:50.111Z,52.30
2017-09-18T17:15:17.607Z,52.30
2017-09-18T17:17:45.127Z,52.40
2017-09-18T17:20:12.663Z,52.30
2017-09-18T17:22:40.180Z,52.30
2017-09-18T17:25:08.487Z,52.30
2017-09-18T17:27:36.087Z,52.30
2017-09-18T17:30:03.585Z,52.30
2017-09-18T17:32:31.980Z,52.30
2017-09-18T17:34:59.483Z,52.30
2017-09-18T17:37:27.011Z,52.30
2017-09-18T17:39:54.527Z,52.40
2017-09-18T17:42:22.198Z,52.40
2017-09-18T17:44:49.863Z,52.30
2017-09-18T17:47:17.367Z,52.40
2017-09-18T17:49:44.865Z,52.40
2017-09-18T17:52:12.632Z,52.40
2017-09-18T17:54:40.956Z,52.40
2017-09-18T17:57:08.580Z,52.30
2017-09-18T17:59:36.227Z,52.30
2017-09-18T18:02:03.727Z,52.80
2017-09-18T18:04:31.354Z,52.40
2017-09-18T18:06:58.884Z,52.40
2017-09-18T18:09:26.496Z,52.30
2017-09-18T18:11:53.987Z,52.30
2017-09-18T18:14:22.390Z,52.40
2017-09-18T18:16:50.043Z,52.40
2017-09-18T18:19:17.555Z,52.40
2017-09-18T18:21:45.164Z,52.40
2017-09-18T18:24:12.664Z,52.40
2017-09-18T18:26:41.089Z,52.30
2017-09-18T18:29:08.624Z,52.30
2017-09-18T18:31:36.147Z,52.20
2017-09-18T18:34:03.671Z,52.20
2017-09-18T18:36:31.308Z,52.40
2017-09-18T18:38:58.967Z,52.30
2017-09-18T18:41:26.483Z,52.40
2017-09-18T18:43:54.759Z,52.20
2017-09-18T18:46:23.036Z,51.90
2017-09-18T18:48:51.867Z,52.50
2017-09-18T18:51:19.491Z,52.20
2017-09-18T18:53:47.912Z,52.20
2017-09-18T18:56:15.543Z,52.20
2017-09-18T18:58:43.108Z,52.20
2017-09-18T19:01:10.616Z,52.20
2017-09-18T19:03:38.147Z,52.20
2017-09-18T19:06:05.696Z,52.30
2017-09-18T19:08:33.195Z,52.20
2017-09-18T19:11:01.536Z,52.30
2017-09-18T19:13:29.031Z,52.30
2017-09-18T19:15:56.640Z,52.20
2017-09-18T19:18:24.183Z,52.20
2017-09-18T19:20:51.826Z,52.20
2017-09-18T19:23:19.331Z,52.20
2017-09-18T19:25:46.939Z,52.30
2017-09-18T19:28:14.452Z,52.30
2017-09-18T19:30:41.955Z,52.20
2017-09-18T19:33:09.519Z,52.30
2017-09-18T19:35:37.066Z,52.40
2017-09-18T19:38:04.863Z,52.40
2017-09-18T19:40:32.533Z,52.30
2017-09-18T19:43:00.047Z,52.30
2017-09-18T19:45:27.614Z,52.20
2017-09-18T19:47:55.246Z,52.10
2017-09-18T19:50:22.907Z,52.30
2017-09-18T19:52:50.443Z,52.20
2017-09-18T19:55:18.704Z,52.20
2017-09-18T19:57:46.296Z,52.20
2017-09-18T20:00:13.989Z,52.20
2017-09-18T20:02:41.488Z,52.20
2017-09-18T20:05:09.079Z,52.20
2017-09-18T20:07:36.575Z,52.30
2017-09-18T20:10:04.071Z,52.20
2017-09-18T20:12:31.572Z,52.20
2017-09-18T20:14:59.087Z,52.20
2017-09-18T20:17:26.739Z,52.30
2017-09-18T20:19:54.403Z,52.20
2017-09-18T20:22:22.072Z,52.30
2017-09-18T20:24:49.604Z,52.20
2017-09-18T20:27:17.231Z,52.30
2017-09-18T20:29:44.747Z,52.30
2017-09-18T20:32:12.272Z,52.20
2017-09-18T20:34:39.767Z,52.10
2017-09-18T20:37:07.398Z,52.20
2017-09-18T20:39:34.912Z,52.20
2017-09-18T20:42:03.187Z,52.10
2017-09-18T20:44:31.451Z,52.90
2017-09-18T20:46:59.056Z,52.20
2017-09-18T20:49:26.563Z,52.20
2017-09-18T20:51:54.076Z,52.30
2017-09-18T20:54:21.667Z,52.30
2017-09-18T20:56:49.185Z,52.20
2017-09-18T20:59:16.737Z,52.10
2017-09-18T21:01:44.263Z,52.10
2017-09-18T21:04:12.524Z,52.20
2017-09-18T21:06:40.812Z,52.10
2017-09-18T21:09:09.083Z,52.10
2017-09-18T21:11:37.367Z,52.10
2017-09-18T21:14:04.860Z,52.10
2017-09-18T21:16:32.494Z,52.10
2017-09-18T21:19:00.255Z,52.10
2017-09-18T21:21:27.751Z,52.00
2017-09-18T21:23:55.264Z,52.10
2017-09-18T21:26:22.758Z,52.10
2017-09-18T21:28:50.251Z,52.10
2017-09-18T21:31:17.762Z,52.10
2017-09-18T21:33:45.393Z,52.10
2017-09-18T21:36:12.885Z,52.60
2017-09-18T21:38:40.383Z,52.10
2017-09-18T21:41:08.652Z,52.20
2017-09-18T21:43:36.916Z,52.20
2017-09-18T21:46:05.318Z,52.10
2017-09-18T21:48:32.835Z,52.10
2017-09-18T21:51:00.423Z,52.10
2017-09-18T21:53:27.927Z,52.20
2017-09-18T21:55:55.423Z,52.10
2017-09-18T21:58:23.821Z,52.10
2017-09-18T22:00:51.319Z,52.10
2017-09-18T22:03:18.924Z,52.10
2017-09-18T22:05:46.583Z,52.10
2017-09-18T22:08:14.075Z,52.10
2017-09-18T22:10:41.584Z,52.00
2017-09-18T22:13:09.152Z,52.00
2017-09-18T22:15:36.647Z,52.00
2017-09-18T22:18:04.147Z,52.00
2017-09-18T22:20:32.407Z,52.10
2017-09-18T22:23:00.683Z,52.00
2017-09-18T22:25:28.175Z,52.00
2017-09-18T22:27:55.675Z,52.00
2017-09-18T22:30:23.387Z,52.50
2017-09-18T22:32:50.891Z,52.00
2017-09-18T22:35:18.482Z,52.00
2017-09-18T22:37:46.007Z,52.00
2017-09-18T22:40:13.505Z,51.90
2017-09-18T22:42:41.031Z,52.00
2017-09-18T22:45:08.723Z,52.00
2017-09-18T22:47:36.382Z,52.00
2017-09-18T22:50:04.027Z,51.80
2017-09-18T22:52:31.547Z,51.80
2017-09-18T22:54:59.163Z,51.90
2017-09-18T22:57:26.690Z,52.30
2017-09-18T22:59:54.283Z,51.80
2017-09-18T23:02:21.808Z,51.70
2017-09-18T23:04:49.380Z,51.80
2017-09-18T23:07:16.902Z,51.90
2017-09-18T23:09:45.172Z,51.80
2017-09-18T23:12:13.459Z,51.90
2017-09-18T23:14:41.223Z,51.80
2017-09-18T23:17:08.735Z,51.80
2017-09-18T23:19:36.235Z,51.90
2017-09-18T23:22:03.807Z,51.80
2017-09-18T23:24:31.318Z,51.80
2017-09-18T23:26:58.911Z,51.90
2017-09-18T23:29:26.569Z,51.90
2017-09-18T23:31:54.077Z,51.90
2017-09-18T23:34:21.566Z,51.80
2017-09-18T23:36:49.059Z,51.80
2017-09-18T23:39:16.592Z,51.80
2017-09-18T23:41:44.262Z,51.70
2017-09-18T23:44:11.773Z,51.80
2017-09-18T23:46:40.044Z,51.80
2017-09-18T23:49:08.450Z,51.90
2017-09-18T23:51:35.947Z,51.80
2017-09-18T23:54:03.449Z,51.70
2017-09-18T23:56:30.967Z,51.80
2017-09-18T23:58:58.691Z,51.70
